Time;durP1;ratioP1;P1;durP2;ratioP2;P2;SDS_P1;SDS_P2;PMS_P1;PMS_P2;Temp;Humidity;BMP_temperature;BMP_pressure;BME280_temperature;BME280_humidity;BME280_pressure;Samples;Min_cycle;Max_cycle;Signal;HPM_P1;HPM_P2
2022/01/04 00:00:50;;;;;;;1.77;1.43;;;;;;;;;;5070052;28;20280;-65
2022/01/04 00:03:37;;;;;;;2.00;1.67;;;;;;;;;;5061582;28;20249;-65
2022/01/04 00:06:24;;;;;;;3.10;1.63;;;;;;;;;;5069510;28;20240;-65
2022/01/04 00:09:11;;;;;;;2.27;1.73;;;;;;;;;;5066658;28;20672;-65
2022/01/04 00:13:21;;;;;;;1.83;1.60;;;;;;;;;;5068791;28;20238;-65
2022/01/04 00:15:08;;;;;;;1.80;1.67;;;;;;;;;;5069411;28;20685;-65
2022/01/04 00:17:55;;;;;;;3.73;2.00;;;;;;;;;;5068790;28;20205;-65
2022/01/04 00:20:42;;;;;;;1.80;1.70;;;;;;;;;;5070876;28;20246;-65
2022/01/04 00:23:29;;;;;;;2.17;1.70;;;;;;;;;;5067293;28;20251;-65
2022/01/04 00:26:16;;;;;;;2.03;1.50;;;;;;;;;;5067983;28;20216;-65
2022/01/04 00:29:04;;;;;;;2.40;1.50;;;;;;;;;;5067892;28;20552;-66
2022/01/04 00:31:52;;;;;;;1.53;1.40;;;;;;;;;;5068092;28;20614;-65
2022/01/04 00:34:41;;;;;;;1.80;1.70;;;;;;;;;;5067920;28;20201;-65
2022/01/04 00:37:28;;;;;;;2.27;1.50;;;;;;;;;;5067731;28;20731;-65
2022/01/04 00:40:15;;;;;;;1.70;1.40;;;;;;;;;;5069043;28;20209;-66
2022/01/04 00:43:02;;;;;;;2.27;1.70;;;;;;;;;;5068913;28;20286;-65
2022/01/04 00:45:52;;;;;;;2.27;1.50;;;;;;;;;;5067786;28;20286;-66
2022/01/04 00:51:48;;;;;;;2.13;1.50;;;;;;;;;;5067699;28;20244;-65
2022/01/04 00:54:35;;;;;;;1.60;1.40;;;;;;;;;;5068073;28;20197;-65
2022/01/04 00:57:22;;;;;;;2.00;1.23;;;;;;;;;;5069529;28;20679;-63
2022/01/04 01:00:11;;;;;;;1.93;1.60;;;;;;;;;;5068409;28;20267;-65
2022/01/04 01:02:59;;;;;;;2.73;1.63;;;;;;;;;;5055739;28;20346;-65
2022/01/04 01:05:47;;;;;;;1.60;1.20;;;;;;;;;;5067718;28;20260;-65
2022/01/04 01:08:34;;;;;;;1.20;1.10;;;;;;;;;;5067155;28;20222;-65
2022/01/04 01:11:22;;;;;;;2.00;1.20;;;;;;;;;;5069095;28;20333;-65
2022/01/04 01:14:09;;;;;;;0.97;0.90;;;;;;;;;;5068279;28;20214;-66
2022/01/04 01:16:56;;;;;;;1.40;1.20;;;;;;;;;;5068956;28;20206;-65
2022/01/04 01:19:42;;;;;;;1.20;1.07;;;;;;;;;;5068130;28;20616;-65
2022/01/04 01:22:31;;;;;;;1.40;1.30;;;;;;;;;;5066543;28;20676;-65
2022/01/04 01:25:20;;;;;;;1.73;0.93;;;;;;;;;;5067977;28;20766;-67
2022/01/04 01:28:07;;;;;;;1.17;1.07;;;;;;;;;;5066760;28;20205;-65
2022/01/04 01:30:54;;;;;;;1.73;0.93;;;;;;;;;;5068702;28;20320;-64
2022/01/04 01:33:41;;;;;;;1.40;0.90;;;;;;;;;;5067879;28;20266;-65
2022/01/04 01:36:28;;;;;;;1.83;1.27;;;;;;;;;;5068578;28;20299;-65
2022/01/04 01:39:16;;;;;;;1.73;1.03;;;;;;;;;;5052309;28;20307;-65
2022/01/04 01:42:04;;;;;;;1.80;1.20;;;;;;;;;;5064272;28;20318;-65
2022/01/04 01:44:51;;;;;;;1.90;1.10;;;;;;;;;;5061152;28;20243;-65
2022/01/04 01:47:41;;;;;;;1.37;0.90;;;;;;;;;;5068491;28;20211;-65
2022/01/04 01:50:28;;;;;;;1.53;1.10;;;;;;;;;;5067520;28;20251;-65
2022/01/04 01:53:15;;;;;;;1.30;1.10;;;;;;;;;;5054281;28;20285;-65
2022/01/04 01:56:04;;;;;;;1.20;1.10;;;;;;;;;;5067596;28;20262;-65
2022/01/04 01:58:51;;;;;;;1.93;1.33;;;;;;;;;;5067550;28;20302;-65
2022/01/04 02:01:38;;;;;;;2.10;1.47;;;;;;;;;;5067948;28;20296;-65
2022/01/04 02:04:25;;;;;;;1.30;1.20;;;;;;;;;;5067949;28;20236;-65
2022/01/04 02:07:13;;;;;;;1.70;1.60;;;;;;;;;;5066219;28;20255;-66
2022/01/04 02:10:03;;;;;;;1.97;1.50;;;;;;;;;;5063923;28;20339;-65
2022/01/04 02:12:52;;;;;;;2.40;1.40;;;;;;;;;;5063142;28;20216;-66
2022/01/04 02:15:39;;;;;;;1.20;1.00;;;;;;;;;;5066008;28;20216;-67
2022/01/04 02:18:26;;;;;;;1.30;1.20;;;;;;;;;;5067297;28;20202;-65
2022/01/04 02:21:14;;;;;;;1.50;1.40;;;;;;;;;;5059048;28;20235;-66
2022/01/04 02:24:01;;;;;;;1.37;1.13;;;;;;;;;;5067978;28;20232;-65
2022/01/04 02:26:49;;;;;;;1.67;1.57;;;;;;;;;;5065554;28;20240;-65
2022/01/04 02:29:36;;;;;;;1.33;1.13;;;;;;;;;;5054311;28;20733;-65
2022/01/04 02:32:23;;;;;;;2.10;1.30;;;;;;;;;;5066280;28;20307;-65
2022/01/04 02:35:11;;;;;;;1.43;1.07;;;;;;;;;;5067360;28;20206;-65
2022/01/04 02:38:01;;;;;;;1.53;1.33;;;;;;;;;;5063221;28;20359;-65
2022/01/04 02:40:48;;;;;;;1.20;1.10;;;;;;;;;;5065293;28;20209;-65
2022/01/04 02:43:34;;;;;;;3.23;1.10;;;;;;;;;;5058051;28;20301;-65
2022/01/04 02:46:21;;;;;;;1.50;1.33;;;;;;;;;;5068448;28;20282;-65
2022/01/04 02:49:08;;;;;;;1.33;1.20;;;;;;;;;;5067868;28;20256;-65
2022/01/04 02:51:55;;;;;;;1.43;1.23;;;;;;;;;;5066719;28;20574;-66
2022/01/04 02:54:44;;;;;;;1.30;1.20;;;;;;;;;;5068047;28;20685;-65
2022/01/04 02:57:31;;;;;;;1.70;1.20;;;;;;;;;;5068016;28;20212;-67
2022/01/04 03:00:18;;;;;;;0.87;0.83;;;;;;;;;;5069628;28;20250;-65
2022/01/04 03:03:05;;;;;;;1.80;1.30;;;;;;;;;;5070874;28;20226;-65
2022/01/04 03:05:52;;;;;;;1.83;1.30;;;;;;;;;;5054335;28;20279;-65
2022/01/04 03:08:39;;;;;;;1.30;1.10;;;;;;;;;;5067960;28;20299;-65
2022/01/04 03:11:27;;;;;;;1.50;1.17;;;;;;;;;;5061083;28;20579;-65
2022/01/04 03:14:14;;;;;;;1.83;1.00;;;;;;;;;;5070549;28;20251;-66
2022/01/04 03:17:02;;;;;;;1.30;1.17;;;;;;;;;;5070001;28;20992;-65
2022/01/04 03:19:49;;;;;;;1.03;0.90;;;;;;;;;;5062178;28;20706;-65
2022/01/04 03:22:35;;;;;;;1.10;1.00;;;;;;;;;;5070782;28;20253;-65
2022/01/04 03:25:22;;;;;;;2.00;1.50;;;;;;;;;;5070611;28;20698;-65
2022/01/04 03:28:12;;;;;;;1.17;0.90;;;;;;;;;;5069751;28;20675;-65
2022/01/04 03:30:59;;;;;;;1.13;1.03;;;;;;;;;;5068638;28;20281;-65
2022/01/04 03:33:46;;;;;;;1.33;1.03;;;;;;;;;;5058684;28;20276;-65
2022/01/04 03:36:34;;;;;;;1.13;0.93;;;;;;;;;;5070081;28;20227;-66
2022/01/04 03:39:21;;;;;;;1.10;1.00;;;;;;;;;;5064671;28;20265;-66
2022/01/04 03:42:08;;;;;;;0.90;0.90;;;;;;;;;;5070181;28;20691;-65
2022/01/04 03:44:57;;;;;;;1.17;0.87;;;;;;;;;;5068709;28;20233;-65
2022/01/04 03:47:44;;;;;;;1.20;1.10;;;;;;;;;;5071131;28;20278;-65
2022/01/04 03:50:30;;;;;;;1.83;0.97;;;;;;;;;;5069680;28;20204;-65
2022/01/04 03:53:17;;;;;;;1.53;0.93;;;;;;;;;;5068672;28;20347;-65
2022/01/04 03:56:05;;;;;;;1.10;1.00;;;;;;;;;;5071139;28;20692;-66
2022/01/04 03:58:52;;;;;;;1.27;1.00;;;;;;;;;;5070398;28;20206;-65
2022/01/04 04:01:40;;;;;;;1.40;1.10;;;;;;;;;;5070955;28;20295;-67
2022/01/04 04:04:27;;;;;;;1.27;1.10;;;;;;;;;;5070164;28;20314;-66
2022/01/04 04:07:14;;;;;;;1.00;0.83;;;;;;;;;;5067614;28;20279;-66
2022/01/04 04:10:01;;;;;;;1.33;1.20;;;;;;;;;;5070166;28;20204;-65
2022/01/04 04:12:48;;;;;;;0.70;0.70;;;;;;;;;;5068047;28;20214;-65
2022/01/04 04:15:35;;;;;;;0.93;0.80;;;;;;;;;;5068785;28;20327;-65
2022/01/04 04:18:23;;;;;;;0.93;0.93;;;;;;;;;;5069611;28;20207;-65
2022/01/04 04:21:10;;;;;;;1.53;0.90;;;;;;;;;;5068128;28;20208;-65
2022/01/04 04:23:57;;;;;;;0.83;0.83;;;;;;;;;;5070934;28;20224;-66
2022/01/04 04:26:44;;;;;;;1.60;0.90;;;;;;;;;;5068998;28;20251;-65
2022/01/04 04:29:32;;;;;;;1.13;0.80;;;;;;;;;;5063284;28;20228;-65
2022/01/04 04:32:19;;;;;;;1.20;0.83;;;;;;;;;;5070389;28;20209;-65
2022/01/04 04:35:08;;;;;;;1.53;0.93;;;;;;;;;;5068717;28;20216;-66
2022/01/04 04:37:55;;;;;;;1.00;0.83;;;;;;;;;;5061558;28;20221;-67
2022/01/04 04:40:42;;;;;;;1.20;1.10;;;;;;;;;;5069038;28;20207;-65
2022/01/04 04:43:29;;;;;;;0.90;0.80;;;;;;;;;;5067945;28;20883;-65
2022/01/04 04:46:16;;;;;;;1.37;1.07;;;;;;;;;;5069349;28;20278;-65
2022/01/04 04:49:05;;;;;;;1.67;1.10;;;;;;;;;;5067758;28;20623;-65
2022/01/04 04:51:54;;;;;;;1.07;0.87;;;;;;;;;;5069939;28;20290;-65
2022/01/04 04:54:41;;;;;;;2.10;1.00;;;;;;;;;;5069273;28;20207;-65
2022/01/04 04:57:28;;;;;;;1.30;0.90;;;;;;;;;;5068124;28;20286;-66
2022/01/04 05:00:16;;;;;;;1.43;1.10;;;;;;;;;;5054326;28;20242;-65
2022/01/04 05:03:03;;;;;;;1.97;0.90;;;;;;;;;;5067613;28;20209;-65
2022/01/04 05:05:50;;;;;;;1.60;1.50;;;;;;;;;;5068389;28;20236;-65
2022/01/04 05:08:38;;;;;;;1.33;1.20;;;;;;;;;;5066888;28;20205;-67
2022/01/04 05:11:26;;;;;;;1.20;1.10;;;;;;;;;;5066560;28;20831;-65
2022/01/04 05:14:13;;;;;;;1.20;1.10;;;;;;;;;;5069528;28;20318;-66
2022/01/04 05:17:00;;;;;;;0.80;0.80;;;;;;;;;;5067454;28;20252;-66
2022/01/04 05:19:48;;;;;;;1.80;1.17;;;;;;;;;;5067822;28;20273;-65
2022/01/04 05:22:35;;;;;;;1.13;0.93;;;;;;;;;;5068662;28;20212;-65
2022/01/04 05:25:24;;;;;;;1.00;0.83;;;;;;;;;;5067904;28;20692;-65
2022/01/04 05:28:11;;;;;;;1.30;1.17;;;;;;;;;;5068004;28;20201;-65
2022/01/04 05:30:58;;;;;;;1.20;0.93;;;;;;;;;;5067959;28;20216;-66
2022/01/04 05:33:45;;;;;;;1.37;1.00;;;;;;;;;;5065043;28;20319;-66
2022/01/04 05:36:32;;;;;;;2.07;1.07;;;;;;;;;;5068748;28;20291;-65
2022/01/04 05:39:19;;;;;;;0.97;0.87;;;;;;;;;;5068017;28;20216;-65
2022/01/04 05:42:09;;;;;;;1.53;1.00;;;;;;;;;;5066631;28;20245;-65
2022/01/04 05:44:56;;;;;;;1.47;1.20;;;;;;;;;;5068933;28;20238;-65
2022/01/04 05:47:43;;;;;;;1.43;1.13;;;;;;;;;;5066521;28;20240;-66
2022/01/04 05:50:30;;;;;;;1.23;1.00;;;;;;;;;;5069234;28;20259;-65
2022/01/04 05:53:17;;;;;;;1.27;1.10;;;;;;;;;;5068012;28;20226;-65
2022/01/04 05:56:05;;;;;;;1.67;1.20;;;;;;;;;;5069422;28;20289;-65
2022/01/04 05:58:53;;;;;;;1.50;1.37;;;;;;;;;;5067909;28;20301;-65
2022/01/04 06:01:40;;;;;;;1.10;1.00;;;;;;;;;;5067660;28;20267;-66
2022/01/04 06:04:27;;;;;;;1.20;1.10;;;;;;;;;;5068560;28;20380;-67
2022/01/04 06:07:14;;;;;;;1.93;1.20;;;;;;;;;;5065923;28;20353;-65
2022/01/04 06:10:01;;;;;;;1.13;1.00;;;;;;;;;;5064741;28;20296;-65
2022/01/04 06:15:54;;;;;;;2.53;1.00;;;;;;;;;;5067818;28;20212;-65
2022/01/04 06:18:42;;;;;;;1.23;1.10;;;;;;;;;;5067589;28;20253;-65
2022/01/04 06:21:29;;;;;;;0.93;0.93;;;;;;;;;;5068200;28;20212;-65
2022/01/04 06:24:16;;;;;;;1.77;1.27;;;;;;;;;;5067465;28;20694;-65
2022/01/04 06:27:06;;;;;;;1.67;1.23;;;;;;;;;;5052848;28;20661;-65
2022/01/04 06:29:53;;;;;;;0.97;0.83;;;;;;;;;;5067172;28;20575;-65
2022/01/04 06:32:42;;;;;;;2.27;1.10;;;;;;;;;;5068247;28;20216;-65
2022/01/04 06:35:33;;;;;;;1.13;1.03;;;;;;;;;;5073554;28;20207;-65
2022/01/04 06:38:20;;;;;;;1.17;1.07;;;;;;;;;;5070586;28;20219;-65
2022/01/04 06:41:07;;;;;;;1.07;1.00;;;;;;;;;;5071705;28;20241;-65
2022/01/04 06:43:54;;;;;;;0.90;0.90;;;;;;;;;;5071793;28;20346;-65
2022/01/04 06:46:45;;;;;;;1.73;1.33;;;;;;;;;;5071253;28;20306;-65
2022/01/04 06:49:33;;;;;;;1.60;1.20;;;;;;;;;;5071331;28;20207;-65
2022/01/04 06:52:20;;;;;;;1.23;1.10;;;;;;;;;;5072168;28;20735;-65
2022/01/04 06:55:08;;;;;;;2.70;1.30;;;;;;;;;;5070695;28;20204;-65
2022/01/04 06:57:55;;;;;;;1.40;1.20;;;;;;;;;;5069939;28;20286;-65
2022/01/04 07:00:42;;;;;;;1.00;0.90;;;;;;;;;;5070908;28;20235;-65
2022/01/04 07:03:29;;;;;;;1.17;1.00;;;;;;;;;;5055118;28;20232;-65
2022/01/04 07:06:18;;;;;;;0.97;0.90;;;;;;;;;;5069102;28;20320;-66
2022/01/04 07:09:06;;;;;;;1.77;1.20;;;;;;;;;;5067739;28;20349;-65
2022/01/04 07:11:54;;;;;;;1.90;1.10;;;;;;;;;;5070261;28;20208;-65
2022/01/04 07:14:41;;;;;;;1.67;1.10;;;;;;;;;;5071941;28;20681;-66
2022/01/04 07:17:27;;;;;;;2.43;1.20;;;;;;;;;;5055969;28;20333;-66
2022/01/04 07:20:14;;;;;;;1.20;1.00;;;;;;;;;;5070639;28;20244;-67
2022/01/04 07:23:03;;;;;;;1.47;1.07;;;;;;;;;;5070697;28;20725;-65
2022/01/04 07:25:50;;;;;;;1.30;1.20;;;;;;;;;;5070140;28;20240;-66
2022/01/04 07:28:36;;;;;;;1.80;1.23;;;;;;;;;;5069433;28;20661;-65
2022/01/04 07:31:24;;;;;;;1.07;0.80;;;;;;;;;;5070873;28;20323;-66
2022/01/04 07:34:11;;;;;;;1.60;1.23;;;;;;;;;;5069622;28;20205;-65
2022/01/04 07:36:58;;;;;;;1.60;1.17;;;;;;;;;;5070128;28;20227;-67
2022/01/04 07:39:46;;;;;;;1.30;1.20;;;;;;;;;;5070240;28;20203;-65
2022/01/04 07:42:33;;;;;;;2.00;1.20;;;;;;;;;;5069436;28;20204;-65
2022/01/04 07:45:20;;;;;;;1.60;1.27;;;;;;;;;;5070273;28;20358;-65
2022/01/04 07:48:10;;;;;;;2.03;1.27;;;;;;;;;;5070372;28;20285;-66
2022/01/04 07:50:58;;;;;;;1.63;1.20;;;;;;;;;;5070218;28;20213;-65
2022/01/04 07:53:45;;;;;;;1.60;1.10;;;;;;;;;;5071014;28;20581;-65
2022/01/04 07:56:34;;;;;;;2.57;1.00;;;;;;;;;;5069216;28;20239;-65
2022/01/04 07:59:21;;;;;;;1.20;1.10;;;;;;;;;;5070404;28;20215;-65
2022/01/04 08:02:08;;;;;;;1.27;1.17;;;;;;;;;;5069629;28;20208;-65
2022/01/04 08:04:55;;;;;;;1.93;1.50;;;;;;;;;;5069713;28;20289;-65
2022/01/04 08:07:42;;;;;;;2.30;1.50;;;;;;;;;;5068276;28;20239;-66
2022/01/04 08:10:29;;;;;;;1.23;1.13;;;;;;;;;;5078666;28;20234;-65
2022/01/04 08:13:17;;;;;;;1.73;1.30;;;;;;;;;;5074894;28;20276;-65
2022/01/04 08:16:05;;;;;;;1.13;1.00;;;;;;;;;;5069267;28;20208;-65
2022/01/04 08:18:51;;;;;;;1.40;1.30;;;;;;;;;;5068628;28;20208;-65
2022/01/04 08:21:38;;;;;;;3.23;1.37;;;;;;;;;;5070638;28;20686;-65
2022/01/04 08:24:25;;;;;;;1.57;1.40;;;;;;;;;;5068503;28;20270;-65
2022/01/04 08:27:12;;;;;;;1.70;1.33;;;;;;;;;;5067959;28;20298;-65
2022/01/04 08:30:01;;;;;;;1.43;1.20;;;;;;;;;;5069658;28;20617;-65
2022/01/04 08:32:48;;;;;;;1.60;1.40;;;;;;;;;;5068108;28;20287;-65
2022/01/04 08:35:35;;;;;;;1.77;1.17;;;;;;;;;;5069646;28;20439;-65
2022/01/04 08:38:22;;;;;;;1.47;1.33;;;;;;;;;;5069699;28;20637;-65
2022/01/04 08:41:08;;;;;;;1.50;1.40;;;;;;;;;;5069294;28;20295;-65
2022/01/04 08:43:55;;;;;;;1.50;1.40;;;;;;;;;;5069380;28;20219;-65
2022/01/04 08:46:44;;;;;;;1.60;1.50;;;;;;;;;;5066673;28;20693;-65
2022/01/04 08:49:31;;;;;;;1.90;1.70;;;;;;;;;;5061678;28;20745;-65
2022/01/04 08:52:18;;;;;;;2.07;1.63;;;;;;;;;;5069034;28;20212;-65
2022/01/04 08:55:06;;;;;;;1.60;1.50;;;;;;;;;;5067395;28;20587;-65
2022/01/04 08:57:53;;;;;;;2.20;1.87;;;;;;;;;;5052930;28;20302;-65
2022/01/04 09:00:40;;;;;;;1.70;1.60;;;;;;;;;;5069280;28;20292;-65
2022/01/04 09:03:28;;;;;;;1.60;1.50;;;;;;;;;;5062896;28;20674;-65
2022/01/04 09:06:15;;;;;;;1.53;1.20;;;;;;;;;;5068724;28;20229;-65
2022/01/04 09:09:03;;;;;;;1.53;1.27;;;;;;;;;;5065163;28;20224;-65
2022/01/04 09:11:50;;;;;;;1.70;1.60;;;;;;;;;;5068916;28;20270;-65
2022/01/04 09:14:56;;;;;;;1.27;1.17;;;;;;;;;;5068336;28;20208;-65
2022/01/04 09:20:49;;;;;;;1.40;1.30;;;;;;;;;;5069332;28;20375;-66
2022/01/04 09:23:36;;;;;;;1.17;1.13;;;;;;;;;;5068461;28;20213;-65
2022/01/04 09:26:24;;;;;;;1.60;1.33;;;;;;;;;;5067523;28;20309;-65
2022/01/04 09:29:12;;;;;;;1.10;1.10;;;;;;;;;;5087764;28;20244;-65
2022/01/04 09:32:01;;;;;;;1.57;1.20;;;;;;;;;;5066894;28;20212;-65
2022/01/04 09:34:48;;;;;;;1.77;1.67;;;;;;;;;;5069166;28;20218;-65
2022/01/04 09:37:36;;;;;;;1.83;1.50;;;;;;;;;;5068199;28;20711;-65
2022/01/04 09:40:23;;;;;;;1.47;1.10;;;;;;;;;;5067111;28;20296;-65
2022/01/04 09:43:10;;;;;;;1.47;1.37;;;;;;;;;;5055859;28;20238;-65
2022/01/04 09:45:57;;;;;;;1.63;1.40;;;;;;;;;;5066876;28;20264;-64
2022/01/04 09:48:44;;;;;;;2.23;1.20;;;;;;;;;;5058783;28;20272;-66
2022/01/04 09:51:32;;;;;;;1.67;1.40;;;;;;;;;;5061547;28;20229;-65
2022/01/04 09:54:23;;;;;;;1.43;1.33;;;;;;;;;;5052274;28;20204;-65
2022/01/04 09:57:10;;;;;;;1.43;1.27;;;;;;;;;;5053613;28;20574;-65
2022/01/04 09:59:57;;;;;;;2.60;1.10;;;;;;;;;;5068249;28;20678;-65
2022/01/04 10:02:46;;;;;;;1.20;1.10;;;;;;;;;;5068331;28;20245;-66
2022/01/04 10:05:33;;;;;;;2.20;1.47;;;;;;;;;;5067857;28;20280;-65
2022/01/04 10:08:20;;;;;;;1.77;1.40;;;;;;;;;;5063167;28;20992;-66
2022/01/04 10:11:10;;;;;;;1.43;1.00;;;;;;;;;;5061140;28;20213;-65
2022/01/04 10:13:59;;;;;;;0.93;0.90;;;;;;;;;;5067392;28;20219;-65
2022/01/04 10:16:50;;;;;;;1.43;1.33;;;;;;;;;;5068179;28;20219;-65
2022/01/04 10:19:39;;;;;;;1.70;1.33;;;;;;;;;;5068189;28;20214;-65
2022/01/04 10:22:28;;;;;;;0.80;0.73;;;;;;;;;;5067457;28;20237;-65
2022/01/04 10:25:16;;;;;;;1.43;1.23;;;;;;;;;;5068065;28;20209;-65
2022/01/04 10:28:04;;;;;;;1.43;1.13;;;;;;;;;;5068073;28;20235;-65
2022/01/04 10:30:51;;;;;;;1.67;1.23;;;;;;;;;;5065976;28;20300;-65
2022/01/04 10:33:38;;;;;;;1.77;1.10;;;;;;;;;;5066406;28;20246;-65
2022/01/04 10:36:25;;;;;;;1.23;0.97;;;;;;;;;;5065700;28;20232;-65
2022/01/04 10:39:12;;;;;;;1.67;1.40;;;;;;;;;;5064857;28;20221;-65
2022/01/04 10:42:05;;;;;;;1.13;1.03;;;;;;;;;;5067297;28;20632;-65
2022/01/04 10:44:54;;;;;;;1.03;0.90;;;;;;;;;;5066925;28;20221;-65
2022/01/04 10:47:41;;;;;;;2.83;1.33;;;;;;;;;;5067675;28;20891;-65
2022/01/04 10:50:32;;;;;;;1.77;0.97;;;;;;;;;;5068416;28;20212;-66
2022/01/04 10:53:23;;;;;;;1.97;1.20;;;;;;;;;;5065334;28;20212;-65
2022/01/04 10:56:12;;;;;;;1.47;1.20;;;;;;;;;;5065979;28;20826;-65
2022/01/04 10:59:01;;;;;;;1.53;1.20;;;;;;;;;;5066246;28;20281;-65
2022/01/04 11:01:50;;;;;;;1.20;1.13;;;;;;;;;;5068349;28;20344;-66
2022/01/04 11:04:39;;;;;;;1.40;1.30;;;;;;;;;;5067181;28;20223;-65
2022/01/04 11:07:26;;;;;;;2.03;1.10;;;;;;;;;;5062525;28;21090;-67
2022/01/04 11:10:13;;;;;;;1.60;1.50;;;;;;;;;;5058308;28;20215;-66
2022/01/04 11:13:00;;;;;;;1.40;1.30;;;;;;;;;;5060533;28;20204;-65
2022/01/04 11:15:47;;;;;;;1.40;1.27;;;;;;;;;;5035023;28;20242;-65
2022/01/04 11:18:41;;;;;;;1.80;1.50;;;;;;;;;;5043770;28;20575;-65
2022/01/04 11:21:31;;;;;;;1.70;1.40;;;;;;;;;;5057954;28;20219;-65
2022/01/04 11:24:19;;;;;;;1.50;1.33;;;;;;;;;;5041523;28;20610;-66
2022/01/04 11:27:09;;;;;;;1.53;1.43;;;;;;;;;;5051837;28;20348;-66
2022/01/04 11:29:58;;;;;;;1.57;1.47;;;;;;;;;;5047233;28;20278;-66
2022/01/04 11:32:49;;;;;;;2.00;1.40;;;;;;;;;;5058523;28;20294;-67
2022/01/04 11:35:37;;;;;;;1.50;1.40;;;;;;;;;;5053851;28;20834;-66
2022/01/04 11:38:32;;;;;;;2.03;1.60;;;;;;;;;;5041729;28;20781;-65
2022/01/04 11:41:25;;;;;;;1.83;1.60;;;;;;;;;;5055749;28;20219;-66
2022/01/04 11:44:20;;;;;;;1.80;1.70;;;;;;;;;;5048498;28;20212;-67
2022/01/04 11:47:09;;;;;;;1.60;1.30;;;;;;;;;;5061392;28;20347;-66
2022/01/04 11:50:13;;;;;;;1.43;1.33;;;;;;;;;;5032919;28;20248;-67
2022/01/04 11:53:08;;;;;;;1.77;1.43;;;;;;;;;;5057741;28;20267;-65
2022/01/04 11:55:57;;;;;;;1.73;1.50;;;;;;;;;;5063468;28;20270;-65
2022/01/04 11:58:46;;;;;;;2.27;1.47;;;;;;;;;;5068800;28;20488;-66
2022/01/04 12:01:33;;;;;;;1.30;1.20;;;;;;;;;;5066338;28;20697;-65
2022/01/04 12:04:52;;;;;;;2.10;1.40;;;;;;;;;;5057184;28;20230;-66
2022/01/04 12:07:47;;;;;;;1.70;1.40;;;;;;;;;;5063674;28;23122;-67
2022/01/04 12:10:41;;;;;;;2.87;1.30;;;;;;;;;;5064990;28;20706;-66
2022/01/04 12:13:47;;;;;;;1.27;1.17;;;;;;;;;;5064411;28;20229;-66
2022/01/04 12:16:36;;;;;;;1.30;1.20;;;;;;;;;;5067368;28;20233;-66
2022/01/04 12:19:46;;;;;;;2.00;1.53;;;;;;;;;;5061334;28;20292;-65
2022/01/04 12:22:35;;;;;;;1.50;1.40;;;;;;;;;;5062248;28;20290;-65
2022/01/04 12:25:22;;;;;;;2.03;1.30;;;;;;;;;;5065385;28;20791;-65
2022/01/04 12:28:17;;;;;;;3.10;1.47;;;;;;;;;;5059823;28;20220;-65
2022/01/04 12:31:25;;;;;;;2.37;1.97;;;;;;;;;;5064771;28;20737;-65
2022/01/04 12:34:27;;;;;;;2.77;1.80;;;;;;;;;;5064839;28;20219;-66
2022/01/04 12:37:18;;;;;;;1.50;1.40;;;;;;;;;;5061581;28;20215;-67
2022/01/04 12:40:07;;;;;;;1.77;1.67;;;;;;;;;;5062149;28;20270;-66
2022/01/04 12:42:54;;;;;;;1.93;1.70;;;;;;;;;;5061841;28;20207;-65
2022/01/04 12:45:43;;;;;;;1.70;1.57;;;;;;;;;;5055727;28;20204;-65
2022/01/04 12:48:43;;;;;;;1.70;1.60;;;;;;;;;;5064344;28;20232;-65
2022/01/04 12:51:32;;;;;;;1.80;1.70;;;;;;;;;;5060919;28;20211;-65
2022/01/04 12:54:21;;;;;;;2.80;1.50;;;;;;;;;;5065434;28;20233;-66
2022/01/04 12:57:11;;;;;;;1.43;1.33;;;;;;;;;;5062236;28;20341;-66
2022/01/04 12:59:59;;;;;;;2.47;1.57;;;;;;;;;;5061796;28;20555;-65
2022/01/04 13:02:47;;;;;;;1.70;1.60;;;;;;;;;;5062829;28;20195;-66
2022/01/04 13:05:36;;;;;;;2.10;1.67;;;;;;;;;;5062056;28;20233;-66
2022/01/04 13:08:26;;;;;;;1.57;1.47;;;;;;;;;;5063696;28;20274;-66
2022/01/04 13:11:13;;;;;;;2.00;1.50;;;;;;;;;;5060975;28;20212;-66
2022/01/04 13:14:04;;;;;;;1.90;1.80;;;;;;;;;;5066151;28;20210;-66
2022/01/04 13:16:59;;;;;;;1.83;1.73;;;;;;;;;;5064194;28;20207;-65
2022/01/04 13:19:48;;;;;;;2.20;1.93;;;;;;;;;;5063733;28;20211;-66
2022/01/04 13:22:37;;;;;;;1.87;1.77;;;;;;;;;;5059383;28;20210;-67
2022/01/04 13:25:23;;;;;;;1.87;1.77;;;;;;;;;;5060401;28;20211;-67
2022/01/04 13:28:10;;;;;;;1.80;1.70;;;;;;;;;;5061717;28;20282;-66
2022/01/04 13:30:57;;;;;;;2.20;1.90;;;;;;;;;;5063500;28;20268;-66
2022/01/04 13:33:45;;;;;;;2.57;1.80;;;;;;;;;;5062701;28;20339;-67
2022/01/04 13:36:33;;;;;;;1.87;1.77;;;;;;;;;;5061663;28;20250;-65
2022/01/04 13:39:21;;;;;;;1.67;1.57;;;;;;;;;;5062274;28;20265;-65
2022/01/04 13:42:36;;;;;;;2.40;1.93;;;;;;;;;;5060678;28;20206;-65
2022/01/04 13:45:23;;;;;;;1.57;1.47;;;;;;;;;;5059947;28;20213;-65
2022/01/04 13:48:11;;;;;;;1.93;1.73;;;;;;;;;;5062322;28;20322;-65
2022/01/04 13:51:04;;;;;;;1.70;1.60;;;;;;;;;;5061632;28;20249;-66
2022/01/04 13:53:55;;;;;;;2.80;1.50;;;;;;;;;;5057929;28;20242;-65
2022/01/04 13:56:42;;;;;;;3.13;1.23;;;;;;;;;;5063779;28;20327;-65
2022/01/04 13:59:29;;;;;;;3.77;1.27;;;;;;;;;;5061479;28;20232;-65
2022/01/04 14:02:27;;;;;;;1.43;1.30;;;;;;;;;;5061375;28;20800;-65
2022/01/04 14:05:15;;;;;;;2.17;1.20;;;;;;;;;;5062151;28;20259;-66
2022/01/04 14:08:02;;;;;;;1.80;1.30;;;;;;;;;;5060421;28;20265;-65
2022/01/04 14:10:53;;;;;;;2.33;1.40;;;;;;;;;;5062223;28;20286;-65
2022/01/04 14:13:41;;;;;;;1.20;1.10;;;;;;;;;;5059906;28;20212;-65
2022/01/04 14:16:28;;;;;;;1.20;1.10;;;;;;;;;;5061007;28;20244;-67
2022/01/04 14:19:16;;;;;;;1.60;1.50;;;;;;;;;;5060224;28;20267;-66
2022/01/04 14:22:05;;;;;;;1.77;1.20;;;;;;;;;;5055320;28;20685;-65
2022/01/04 14:24:54;;;;;;;1.90;1.63;;;;;;;;;;5061632;28;20207;-66
2022/01/04 14:27:44;;;;;;;1.63;1.53;;;;;;;;;;5058302;28;20255;-65
2022/01/04 14:30:35;;;;;;;1.37;1.30;;;;;;;;;;5061279;28;20323;-66
2022/01/04 14:33:22;;;;;;;1.83;1.43;;;;;;;;;;5061777;28;20270;-65
2022/01/04 14:36:09;;;;;;;1.17;1.07;;;;;;;;;;5059890;28;20212;-65
2022/01/04 14:38:56;;;;;;;1.50;1.40;;;;;;;;;;5058257;28;20250;-66
2022/01/04 14:41:42;;;;;;;1.40;1.17;;;;;;;;;;5059952;28;20217;-66
2022/01/04 14:44:32;;;;;;;1.50;1.40;;;;;;;;;;5060862;28;20480;-66
2022/01/04 14:47:19;;;;;;;1.83;1.30;;;;;;;;;;5061431;28;20223;-65
2022/01/04 14:50:07;;;;;;;1.30;1.20;;;;;;;;;;5058875;28;20238;-65
2022/01/04 14:52:55;;;;;;;1.53;1.33;;;;;;;;;;5060252;28;20259;-65
2022/01/04 14:55:43;;;;;;;1.90;1.30;;;;;;;;;;5065864;28;20221;-66
2022/01/04 14:58:31;;;;;;;1.30;1.10;;;;;;;;;;5064477;28;20204;-66
2022/01/04 15:01:19;;;;;;;1.43;1.30;;;;;;;;;;5065868;28;20823;-65
2022/01/04 15:04:06;;;;;;;1.20;1.03;;;;;;;;;;5068045;28;20307;-65
2022/01/04 15:06:53;;;;;;;2.50;1.47;;;;;;;;;;5064147;28;20246;-66
2022/01/04 15:09:40;;;;;;;1.67;1.13;;;;;;;;;;5067193;28;20291;-65
2022/01/04 15:12:30;;;;;;;1.37;1.10;;;;;;;;;;5061761;28;20217;-65
2022/01/04 15:15:17;;;;;;;2.17;1.20;;;;;;;;;;5066951;28;20209;-66
2022/01/04 15:18:05;;;;;;;1.80;1.13;;;;;;;;;;5062140;28;20249;-65
2022/01/04 15:20:52;;;;;;;2.07;1.23;;;;;;;;;;5065754;28;20216;-65
2022/01/04 15:23:40;;;;;;;0.80;0.80;;;;;;;;;;5065359;28;20227;-65
2022/01/04 15:26:27;;;;;;;1.20;1.10;;;;;;;;;;5062480;28;20661;-65
2022/01/04 15:29:14;;;;;;;1.30;1.20;;;;;;;;;;5064542;28;20706;-65
2022/01/04 15:32:01;;;;;;;1.37;1.13;;;;;;;;;;5063525;28;20297;-65
2022/01/04 15:34:50;;;;;;;1.10;1.00;;;;;;;;;;5061740;28;20244;-66
2022/01/04 15:37:37;;;;;;;1.97;1.13;;;;;;;;;;5065698;28;20598;-65
2022/01/04 15:40:24;;;;;;;1.80;1.23;;;;;;;;;;5066421;28;20259;-67
2022/01/04 15:43:11;;;;;;;1.00;0.90;;;;;;;;;;5063982;28;20210;-66
2022/01/04 15:45:59;;;;;;;2.13;1.40;;;;;;;;;;5065450;28;20347;-66
2022/01/04 15:48:46;;;;;;;1.10;1.00;;;;;;;;;;5062938;28;20220;-66
2022/01/04 15:51:34;;;;;;;1.57;1.27;;;;;;;;;;5067712;28;20268;-65
2022/01/04 15:54:21;;;;;;;1.20;0.93;;;;;;;;;;5065422;28;20716;-66
2022/01/04 15:57:08;;;;;;;2.20;1.17;;;;;;;;;;5059759;28;20211;-66
2022/01/04 15:59:56;;;;;;;1.50;1.30;;;;;;;;;;5065688;28;20209;-65
2022/01/04 16:02:43;;;;;;;1.70;0.93;;;;;;;;;;5056231;28;20248;-65
2022/01/04 16:05:30;;;;;;;0.93;0.90;;;;;;;;;;5063965;28;20277;-65
2022/01/04 16:08:19;;;;;;;1.30;1.17;;;;;;;;;;5064912;28;20286;-66
2022/01/04 16:11:06;;;;;;;1.43;1.23;;;;;;;;;;5062797;28;20212;-66
2022/01/04 16:13:53;;;;;;;1.20;1.10;;;;;;;;;;5066457;28;20266;-65
2022/01/04 16:16:45;;;;;;;2.90;1.17;;;;;;;;;;5060039;28;20353;-67
2022/01/04 16:22:37;;;;;;;1.30;1.10;;;;;;;;;;5064464;28;20623;-65
2022/01/04 16:25:27;;;;;;;1.57;1.10;;;;;;;;;;5060382;28;20261;-67
2022/01/04 16:28:15;;;;;;;1.97;1.17;;;;;;;;;;5064039;28;20232;-65
2022/01/04 16:31:06;;;;;;;2.03;1.30;;;;;;;;;;5064092;28;20585;-65
2022/01/04 16:33:53;;;;;;;2.40;1.33;;;;;;;;;;5062821;28;20232;-66
2022/01/04 16:36:42;;;;;;;1.90;1.50;;;;;;;;;;5065249;28;20247;-65
2022/01/04 16:39:30;;;;;;;1.10;1.00;;;;;;;;;;5059563;28;20232;-65
2022/01/04 16:42:18;;;;;;;2.13;1.27;;;;;;;;;;5065130;28;20212;-65
2022/01/04 16:45:06;;;;;;;2.73;1.40;;;;;;;;;;5061173;28;20207;-66
2022/01/04 16:47:54;;;;;;;1.40;1.30;;;;;;;;;;5062389;28;20235;-65
2022/01/04 16:50:41;;;;;;;2.57;1.33;;;;;;;;;;5061870;28;20692;-67
2022/01/04 16:53:27;;;;;;;1.87;1.30;;;;;;;;;;5061608;28;20294;-66
2022/01/04 16:56:14;;;;;;;2.10;1.10;;;;;;;;;;5060128;28;20220;-65
2022/01/04 16:59:03;;;;;;;1.57;1.20;;;;;;;;;;5061479;28;20585;-67
2022/01/04 17:01:50;;;;;;;1.50;1.33;;;;;;;;;;5057597;28;20228;-67